Aérodrome :
LOGIN :

S'inscrire | Disclaimer

   EN    FR    IT 

 










Légende :    VFR   VFR Marginal   IFR   IFR Intensif   IFR Très Intensif
Visi : 
Plafond : 
>= 8 km
>= 3000ft
5 à 8 km
1000 à 3000 ft
1500m à 5 km
500 à 1000 ft
800 à 1500m
200 à 500 ft
< 800m
< 200 ft
Symboles :   Orages  Brouillard  Fortes neiges  Fortes précipitations  Vent > 20 kt
SIGMETs :   Divers  Orages  Givrage  Turbulence  Onde Orograph.  Cendres Volcan.







- Altitude de l'aérodrome : 38 ft
- Code IATA : TRE
- Voir les cartes d'approche


EGPU - Tiree

DERNIER METAR :
  • 190320Z AUTO 20012KT 100V160 9999 FEW018/// BKN046/// 12/10 Q1006

METARs EXPIRÉS :
  • 190250Z AUTO 19012KT 9999 FEW017/// BKN048/// 12/10 Q1006
  • 190220Z AUTO 20012KT 100V160 9999 NCD 11/10 Q1006
  • 190150Z AUTO 20011KT 100V170 9999 BKN048/// 11/10 Q1006
  • 190120Z AUTO 20012KT 100V170 9999 FEW032/// BKN045/// 12/10 Q1006
  • 190050Z AUTO 21013KT 9999 FEW039/// BKN045/// 11/10 Q1007

Prévision TAF périmée.
Pas de NOTAMs connus pour ce terrain.



MET'MAP, la Météo Aéronautique d'un coup d'oeil ! - Copyright ORBIFLY Décembre 2007 - Disclaimer

ORBIFLY MET'MAP TEAM :

Programmation & Développement : Alexandra Zaïnal
Conception & Développement : Baudouin d'Aumeries
Co-Programmation & Développement : Marc-Olivier Méhu
Soutien technique & logistique : Manuel Goepfert

Contact : metmap@orbifly.com




SOURCES & CREDITS :

   NOAA